Time;durP1;ratioP1;P1;durP2;ratioP2;P2;SDS_P1;SDS_P2;PMS_P1;PMS_P2;Temp;Humidity;BMP_temperature;BMP_pressure;BME280_temperature;BME280_humidity;BME280_pressure;Samples;Min_cycle;Max_cycle;Signal;HPM_P1;HPM_P2
2022/04/23 00:01:21;;;;;;;1.75;1.45;;;26.20;48.30;;;;;;5164198;27;20105;-47
2022/04/23 00:03:47;;;;;;;2.47;1.60;;;26.20;48.30;;;;;;5164052;27;20526;-48
2022/04/23 00:06:14;;;;;;;1.45;1.20;;;26.20;48.30;;;;;;5164108;27;20131;-48
2022/04/23 00:08:40;;;;;;;1.27;1.15;;;26.20;48.20;;;;;;5164139;27;20037;-48
2022/04/23 00:11:06;;;;;;;1.40;1.30;;;26.20;48.20;;;;;;5164206;27;20034;-47
2022/04/23 00:13:32;;;;;;;1.58;1.27;;;26.20;48.20;;;;;;5164177;27;20018;-48
2022/04/23 00:15:58;;;;;;;1.42;1.33;;;26.20;48.20;;;;;;5163387;27;20515;-48
2022/04/23 00:18:24;;;;;;;1.60;1.20;;;26.20;48.10;;;;;;5143205;27;20114;-48
2022/04/23 00:20:50;;;;;;;1.65;1.20;;;26.20;48.20;;;;;;5143082;27;20064;-48
2022/04/23 00:23:17;;;;;;;2.47;1.30;;;26.20;48.10;;;;;;5142087;27;20034;-48
2022/04/23 00:25:45;;;;;;;1.60;1.30;;;26.10;48.10;;;;;;5158874;27;20138;-47
2022/04/23 00:28:12;;;;;;;1.40;1.20;;;26.10;48.10;;;;;;5163644;27;20041;-49
2022/04/23 00:30:38;;;;;;;1.63;1.23;;;26.10;48.10;;;;;;5163877;27;20022;-51
2022/04/23 00:33:04;;;;;;;2.30;1.40;;;26.20;48.10;;;;;;5163818;27;20023;-50
2022/04/23 00:35:31;;;;;;;2.22;1.30;;;26.10;48.10;;;;;;5163694;27;20087;-48
2022/04/23 00:37:57;;;;;;;1.58;1.15;;;26.10;48.10;;;;;;5163896;27;20037;-49
2022/04/23 00:40:24;;;;;;;1.50;1.10;;;26.10;48.10;;;;;;5163557;27;20513;-50
2022/04/23 00:42:52;;;;;;;2.50;1.33;;;26.10;48.10;;;;;;5161697;27;20768;-52
2022/04/23 00:45:19;;;;;;;1.40;1.30;;;26.10;48.10;;;;;;5144855;27;20039;-47
2022/04/23 00:47:45;;;;;;;1.67;1.10;;;26.10;48.10;;;;;;5163459;27;20027;-51
2022/04/23 00:50:12;;;;;;;1.65;1.10;;;26.10;48.10;;;;;;5163391;27;20550;-53
2022/04/23 00:52:38;;;;;;;1.75;1.42;;;26.10;48.10;;;;;;5164004;27;20031;-51
2022/04/23 00:55:05;;;;;;;1.58;1.30;;;26.10;48.10;;;;;;5134790;27;20038;-50
2022/04/23 00:57:31;;;;;;;;;;;26.00;48.00;;;;;;5163974;27;20094;-51
2022/04/23 00:59:58;;;;;;;1.55;1.17;;;26.00;48.10;;;;;;5163654;27;19903;-52
2022/04/23 01:02:24;;;;;;;1.52;1.20;;;26.00;48.00;;;;;;5163495;27;20034;-49
2022/04/23 01:04:54;;;;;;;2.22;1.20;;;26.00;48.10;;;;;;5163365;27;20041;-49
2022/04/23 01:07:20;;;;;;;1.30;1.10;;;26.00;48.00;;;;;;5163610;27;20550;-51
2022/04/23 01:09:48;;;;;;;1.35;1.25;;;26.00;48.00;;;;;;5163353;27;20499;-51
2022/04/23 01:12:15;;;;;;;1.85;1.40;;;26.00;48.00;;;;;;5163584;27;20031;-48
2022/04/23 01:15:01;;;;;;;2.10;1.20;;;26.00;48.00;;;;;;5163309;27;20053;-52
2022/04/23 01:17:27;;;;;;;2.03;1.35;;;25.90;48.00;;;;;;5163177;27;20062;-46
2022/04/23 01:19:53;;;;;;;1.52;1.08;;;25.90;48.00;;;;;;5163568;27;20039;-51
2022/04/23 01:22:20;;;;;;;1.20;1.00;;;25.90;48.10;;;;;;5163367;27;20030;-46
2022/04/23 01:24:50;;;;;;;1.52;1.20;;;25.90;48.10;;;;;;5136260;28;20023;-51
2022/04/23 01:27:16;;;;;;;1.70;1.30;;;25.90;48.10;;;;;;5163016;27;20031;-50
2022/04/23 01:29:42;;;;;;;1.53;1.00;;;25.90;48.10;;;;;;5144593;27;20034;-48
2022/04/23 01:32:08;;;;;;;1.30;1.20;;;25.90;48.10;;;;;;5163190;27;20044;-50
2022/04/23 01:34:34;;;;;;;1.73;1.10;;;25.80;48.00;;;;;;5163091;27;20451;-48
2022/04/23 01:37:01;;;;;;;1.40;1.30;;;25.80;48.00;;;;;;5163202;27;20031;-51
2022/04/23 01:39:27;;;;;;;2.10;1.30;;;25.80;48.00;;;;;;5163407;27;20020;-51
2022/04/23 01:41:53;;;;;;;1.52;1.25;;;25.80;48.00;;;;;;5166143;27;20402;-49
2022/04/23 01:44:19;;;;;;;1.60;1.35;;;25.80;48.00;;;;;;5166832;27;20023;-50
2022/04/23 01:46:45;;;;;;;1.80;1.42;;;25.80;47.90;;;;;;5166600;27;20027;-47
2022/04/23 01:49:11;;;;;;;1.55;1.38;;;25.80;47.90;;;;;;5148178;27;20031;-48
2022/04/23 01:51:37;;;;;;;1.40;1.30;;;25.70;47.90;;;;;;5166841;27;20041;-48
2022/04/23 01:54:03;;;;;;;1.80;1.50;;;25.70;47.90;;;;;;5163624;27;20053;-48
2022/04/23 01:56:29;;;;;;;1.88;1.65;;;25.70;47.90;;;;;;5159293;27;20023;-48
2022/04/23 01:58:55;;;;;;;1.50;1.40;;;25.70;47.90;;;;;;5166755;27;20067;-51
2022/04/23 02:01:21;;;;;;;1.98;1.52;;;25.70;47.90;;;;;;5166547;27;20023;-46
2022/04/23 02:03:48;;;;;;;2.60;1.85;;;25.60;47.90;;;;;;5166861;27;20023;-48
2022/04/23 02:06:14;;;;;;;1.90;1.70;;;25.70;47.90;;;;;;5166325;27;20042;-52
2022/04/23 02:08:40;;;;;;;2.05;1.60;;;25.60;47.90;;;;;;5166804;27;20035;-47
2022/04/23 02:11:06;;;;;;;1.75;1.65;;;25.60;47.90;;;;;;5166591;27;20062;-46
2022/04/23 02:13:34;;;;;;;2.50;1.95;;;25.60;48.00;;;;;;5166267;27;20022;-48
2022/04/23 02:16:03;;;;;;;2.10;1.67;;;25.60;47.90;;;;;;5166178;27;20123;-49
2022/04/23 02:18:30;;;;;;;1.70;1.50;;;25.50;47.90;;;;;;5166234;27;20061;-47
2022/04/23 02:20:57;;;;;;;2.17;1.98;;;25.50;47.90;;;;;;5166179;27;20019;-47
2022/04/23 02:23:23;;;;;;;1.52;1.42;;;25.50;47.90;;;;;;5166256;27;20038;-48
2022/04/23 02:25:49;;;;;;;1.60;1.50;;;25.50;47.90;;;;;;5155645;27;20027;-49
2022/04/23 02:28:15;;;;;;;1.95;1.63;;;25.50;48.00;;;;;;5166022;27;20031;-50
2022/04/23 02:30:41;;;;;;;2.55;1.95;;;25.40;47.90;;;;;;5166038;27;20062;-49
2022/04/23 02:33:07;;;;;;;2.13;1.92;;;25.40;47.90;;;;;;5147234;27;20105;-49
2022/04/23 02:35:34;;;;;;;2.08;1.88;;;25.40;47.90;;;;;;5165801;27;20040;-52
2022/04/23 02:38:04;;;;;;;2.13;1.90;;;25.40;47.90;;;;;;5165913;27;20053;-48
2022/04/23 02:40:31;;;;;;;2.17;1.85;;;25.40;48.00;;;;;;5165910;27;20371;-49
2022/04/23 02:42:57;;;;;;;2.20;1.80;;;25.30;47.90;;;;;;5165957;27;20070;-49
2022/04/23 02:45:25;;;;;;;3.53;2.08;;;25.30;48.00;;;;;;5165593;27;20035;-47
2022/04/23 02:47:55;;;;;;;2.28;1.70;;;25.30;47.90;;;;;;5165060;27;20065;-47
2022/04/23 02:50:29;;;;;;;2.40;1.58;;;25.20;47.90;;;;;;5165546;27;20022;-47
2022/04/23 02:52:56;;;;;;;2.10;1.90;;;25.20;47.90;;;;;;5165246;27;20026;-49
2022/04/23 02:55:25;;;;;;;1.80;1.65;;;25.20;48.00;;;;;;5160781;27;20030;-48
2022/04/23 02:57:51;;;;;;;2.15;1.80;;;25.20;48.00;;;;;;5165455;27;20039;-49
2022/04/23 03:00:17;;;;;;;2.00;1.85;;;25.20;48.00;;;;;;5165471;27;20019;-48
2022/04/23 03:02:44;;;;;;;2.65;1.90;;;25.20;48.00;;;;;;5155372;27;20054;-50
2022/04/23 03:05:11;;;;;;;2.03;1.80;;;25.10;48.00;;;;;;5144640;27;20038;-48
2022/04/23 03:07:38;;;;;;;3.03;1.92;;;25.10;48.00;;;;;;5144418;27;20285;-48
2022/04/23 03:10:05;;;;;;;1.93;1.77;;;25.10;48.00;;;;;;5144342;27;20030;-49
2022/04/23 03:12:31;;;;;;;2.13;1.77;;;25.00;47.90;;;;;;5144767;27;20806;-48
2022/04/23 03:14:57;;;;;;;2.30;2.00;;;25.00;48.00;;;;;;5144587;27;20058;-47
2022/04/23 03:17:23;;;;;;;2.63;2.22;;;25.00;48.00;;;;;;5143800;27;20051;-48
2022/04/23 03:19:49;;;;;;;3.28;2.33;;;25.00;48.00;;;;;;5144394;27;20027;-51
2022/04/23 03:22:16;;;;;;;2.55;2.30;;;25.00;48.00;;;;;;5144365;27;20034;-50
2022/04/23 03:24:42;;;;;;;2.65;2.00;;;24.90;48.00;;;;;;5144599;27;20027;-49
2022/04/23 03:27:08;;;;;;;2.30;2.10;;;24.90;48.00;;;;;;5163205;27;20039;-49
2022/04/23 03:29:34;;;;;;;2.50;2.20;;;24.90;48.10;;;;;;5164845;27;20046;-49
2022/04/23 03:32:00;;;;;;;2.90;2.20;;;24.90;48.10;;;;;;5164679;27;20027;-49
2022/04/23 03:34:26;;;;;;;2.58;2.00;;;24.80;48.10;;;;;;5164767;27;20099;-49
2022/04/23 03:36:53;;;;;;;2.70;2.10;;;24.80;48.10;;;;;;5164592;27;20027;-48
2022/04/23 03:39:20;;;;;;;2.92;2.20;;;24.80;48.10;;;;;;5164470;27;20053;-49
2022/04/23 03:41:46;;;;;;;2.67;2.23;;;24.80;48.10;;;;;;5164747;27;20055;-49
2022/04/23 03:44:12;;;;;;;2.40;2.10;;;24.80;48.10;;;;;;5164838;27;20046;-49
2022/04/23 03:46:38;;;;;;;3.50;2.22;;;24.70;48.10;;;;;;5164457;27;20037;-49
2022/04/23 03:49:04;;;;;;;2.55;2.35;;;24.70;48.10;;;;;;5164227;27;20026;-48
2022/04/23 03:51:31;;;;;;;3.13;2.40;;;24.70;48.20;;;;;;5164756;27;20033;-50
2022/04/23 03:53:57;;;;;;;2.10;1.90;;;24.60;48.10;;;;;;5162567;27;20042;-49
2022/04/23 03:56:25;;;;;;;2.97;2.67;;;24.60;48.20;;;;;;5156232;27;20042;-49
2022/04/23 03:58:51;;;;;;;3.38;2.60;;;24.60;48.20;;;;;;5164106;27;20039;-50
2022/04/23 04:01:17;;;;;;;2.22;2.03;;;24.60;48.20;;;;;;5164390;27;20022;-50
2022/04/23 04:03:43;;;;;;;3.47;2.60;;;24.60;48.30;;;;;;5163548;27;20052;-47
2022/04/23 04:06:10;;;;;;;3.05;2.55;;;24.50;48.20;;;;;;5164400;27;20386;-47
2022/04/23 04:08:36;;;;;;;3.08;2.40;;;24.50;48.30;;;;;;5145158;27;20054;-52
2022/04/23 04:11:02;;;;;;;2.85;2.30;;;24.50;48.30;;;;;;5164121;27;20050;-52
2022/04/23 04:13:29;;;;;;;2.97;2.33;;;24.50;48.30;;;;;;5164266;27;20494;-50
2022/04/23 04:15:55;;;;;;;2.80;2.40;;;24.50;48.30;;;;;;5164206;27;20050;-48
2022/04/23 04:18:21;;;;;;;2.87;2.37;;;24.40;48.30;;;;;;5125072;28;20768;-48
2022/04/23 04:20:53;;;;;;;2.90;2.60;;;24.40;48.30;;;;;;5124895;28;20020;-50
2022/04/23 04:23:20;;;;;;;2.92;2.58;;;24.40;48.40;;;;;;5125657;28;20030;-49
2022/04/23 04:25:49;;;;;;;3.10;2.80;;;24.30;48.30;;;;;;5151627;27;20072;-47
2022/04/23 04:28:15;;;;;;;3.53;3.05;;;24.30;48.40;;;;;;5163904;27;20026;-48
2022/04/23 04:33:25;;;;;;;3.55;3.15;;;24.30;48.50;;;;;;5163807;27;20547;-48
2022/04/23 04:35:51;;;;;;;4.38;3.08;;;24.30;48.50;;;;;;5163847;27;20023;-48
2022/04/23 04:38:17;;;;;;;3.72;3.38;;;24.20;48.50;;;;;;5163574;27;20045;-50
2022/04/23 04:40:43;;;;;;;3.75;3.05;;;24.20;48.50;;;;;;5163427;27;20027;-51
2022/04/23 04:43:09;;;;;;;3.35;2.95;;;24.20;48.50;;;;;;5164093;27;20091;-48
2022/04/23 04:45:35;;;;;;;4.65;3.70;;;24.10;48.40;;;;;;5163390;27;20410;-49
2022/04/23 04:48:03;;;;;;;4.72;3.10;;;24.10;48.50;;;;;;5163375;27;20031;-50
2022/04/23 04:50:29;;;;;;;5.05;3.95;;;24.10;48.60;;;;;;5145242;27;20022;-48
2022/04/23 04:52:55;;;;;;;4.40;3.58;;;24.10;48.60;;;;;;5163552;27;20033;-47
2022/04/23 04:55:21;;;;;;;5.10;3.88;;;24.10;48.60;;;;;;5163435;27;20056;-47
2022/04/23 04:57:49;;;;;;;4.53;4.00;;;24.00;48.50;;;;;;5163340;27;20027;-48
2022/04/23 05:00:16;;;;;;;5.40;4.38;;;24.00;48.60;;;;;;5163389;27;20042;-49
2022/04/23 05:02:42;;;;;;;5.63;4.10;;;24.00;48.70;;;;;;5163575;27;20022;-47
2022/04/23 05:05:09;;;;;;;5.40;4.38;;;24.00;48.60;;;;;;5163406;27;20031;-48
2022/04/23 05:07:35;;;;;;;5.85;4.22;;;24.00;48.70;;;;;;5163789;27;20540;-49
2022/04/23 05:10:02;;;;;;;5.65;4.90;;;23.90;48.60;;;;;;5163107;27;20050;-49
2022/04/23 05:12:28;;;;;;;5.85;4.43;;;23.90;48.70;;;;;;5163694;27;20037;-47
2022/04/23 05:14:54;;;;;;;6.72;5.05;;;23.90;48.70;;;;;;5163605;27;20035;-48
2022/04/23 05:17:20;;;;;;;5.85;4.43;;;23.90;48.70;;;;;;5166673;27;20057;-47
2022/04/23 05:19:47;;;;;;;7.95;4.97;;;23.80;48.70;;;;;;5167273;27;20457;-49
2022/04/23 05:22:13;;;;;;;5.97;4.80;;;23.90;48.80;;;;;;5167534;27;20019;-48
2022/04/23 05:24:39;;;;;;;6.28;4.97;;;23.80;48.70;;;;;;5166006;27;20029;-48
2022/04/23 05:27:05;;;;;;;6.47;5.38;;;23.80;48.80;;;;;;5167318;27;20336;-48
2022/04/23 05:29:31;;;;;;;6.15;5.20;;;23.80;48.80;;;;;;5167023;27;20087;-47
2022/04/23 05:31:57;;;;;;;7.40;5.43;;;23.80;48.90;;;;;;5166867;27;20030;-48
2022/04/23 05:34:28;;;;;;;7.88;5.65;;;23.70;48.80;;;;;;5167148;27;20447;-49
2022/04/23 05:36:54;;;;;;;7.10;5.35;;;23.70;48.80;;;;;;5161396;27;20039;-46
2022/04/23 05:39:20;;;;;;;7.35;5.90;;;23.70;48.90;;;;;;5146087;27;20019;-48
2022/04/23 05:41:46;;;;;;;6.97;5.53;;;23.60;48.80;;;;;;5146218;27;20056;-50
2022/04/23 05:44:12;;;;;;;6.50;5.20;;;23.60;48.90;;;;;;5146060;27;20022;-46
2022/04/23 05:46:39;;;;;;;8.20;6.20;;;23.60;48.90;;;;;;5151965;27;20038;-47
2022/04/23 05:49:05;;;;;;;6.97;6.10;;;23.60;48.90;;;;;;5166168;27;20019;-48
2022/04/23 05:51:31;;;;;;;8.18;6.35;;;23.60;49.00;;;;;;5166936;27;20031;-47
2022/04/23 05:53:57;;;;;;;8.13;6.40;;;23.60;49.00;;;;;;5166454;27;20023;-47
2022/04/23 05:56:23;;;;;;;6.90;5.68;;;23.60;49.00;;;;;;5166510;27;20018;-46
2022/04/23 05:58:49;;;;;;;9.13;6.88;;;23.50;49.00;;;;;;5166667;27;20035;-48
2022/04/23 06:01:15;;;;;;;7.93;6.18;;;23.50;49.00;;;;;;5165880;27;20027;-53
2022/04/23 06:03:41;;;;;;;8.57;6.43;;;23.50;49.00;;;;;;5147727;27;20037;-48
2022/04/23 06:06:07;;;;;;;10.45;7.00;;;23.40;49.00;;;;;;5166520;27;20027;-47
2022/04/23 06:08:34;;;;;;;8.05;5.97;;;23.40;49.10;;;;;;5166580;27;20018;-48
2022/04/23 06:11:00;;;;;;;8.70;6.60;;;23.40;49.10;;;;;;5166297;27;20034;-49
2022/04/23 06:13:26;;;;;;;9.60;6.60;;;23.40;49.10;;;;;;5166495;27;20145;-47
2022/04/23 06:15:52;;;;;;;9.82;6.95;;;23.40;49.10;;;;;;5166181;27;20047;-48
2022/04/23 06:18:18;;;;;;;10.48;7.68;;;23.30;49.10;;;;;;5146185;27;20031;-46
2022/04/23 06:20:44;;;;;;;10.45;7.15;;;23.30;49.70;;;;;;5145139;27;20074;-52
2022/04/23 06:23:10;;;;;;;8.73;7.00;;;23.30;49.10;;;;;;5145594;27;20151;-47
2022/04/23 06:25:36;;;;;;;9.50;7.25;;;23.30;49.20;;;;;;5151607;27;20031;-48
2022/04/23 06:28:04;;;;;;;8.18;6.68;;;23.30;49.80;;;;;;5165782;27;20026;-48
2022/04/23 06:30:30;;;;;;;9.43;7.32;;;23.20;49.20;;;;;;5165911;27;20023;-47
2022/04/23 06:32:56;;;;;;;7.70;6.45;;;23.20;49.20;;;;;;5165718;27;20035;-46
2022/04/23 06:35:24;;;;;;;7.43;6.65;;;23.20;49.20;;;;;;5165890;27;20048;-47
2022/04/23 06:37:50;;;;;;;10.80;7.00;;;23.10;49.20;;;;;;5165921;27;20582;-48
2022/04/23 06:40:16;;;;;;;8.98;6.95;;;23.10;49.20;;;;;;5165682;27;20019;-47
2022/04/23 06:42:42;;;;;;;9.15;7.60;;;23.10;49.30;;;;;;5165629;27;20027;-46
2022/04/23 06:45:09;;;;;;;8.35;7.00;;;23.10;49.30;;;;;;5165669;27;20026;-46
2022/04/23 06:47:35;;;;;;;8.75;7.07;;;23.10;49.30;;;;;;5152067;27;20043;-48
2022/04/23 06:50:01;;;;;;;9.30;7.10;;;23.10;49.30;;;;;;5149875;27;20031;-47
2022/04/23 06:52:27;;;;;;;8.25;6.68;;;23.00;49.40;;;;;;5165538;27;20027;-46
2022/04/23 06:54:54;;;;;;;8.60;7.18;;;23.00;49.30;;;;;;5165334;27;20077;-46
2022/04/23 06:57:24;;;;;;;9.80;7.15;;;23.00;49.40;;;;;;5144694;27;20070;-46
2022/04/23 06:59:53;;;;;;;8.80;6.75;;;23.00;49.40;;;;;;5157850;27;20069;-48
2022/04/23 07:02:19;;;;;;;7.93;6.30;;;23.00;49.40;;;;;;5165169;27;20026;-45
2022/04/23 07:04:45;;;;;;;9.07;7.30;;;23.00;49.40;;;;;;5165340;27;20034;-48
2022/04/23 07:07:11;;;;;;;8.18;6.78;;;22.90;49.50;;;;;;5165107;27;20023;-47
2022/04/23 07:09:38;;;;;;;7.57;6.65;;;22.90;49.40;;;;;;5165207;27;20482;-46
2022/04/23 07:12:05;;;;;;;8.43;7.00;;;22.80;49.40;;;;;;5165369;27;20027;-48
2022/04/23 07:14:32;;;;;;;8.27;6.68;;;22.80;49.40;;;;;;5165209;27;20035;-47
2022/04/23 07:16:59;;;;;;;6.75;6.05;;;22.80;49.50;;;;;;5164732;27;20051;-46
2022/04/23 07:19:25;;;;;;;8.30;6.35;;;22.80;49.50;;;;;;5165055;27;20031;-47
2022/04/23 07:21:51;;;;;;;8.43;6.97;;;22.80;49.60;;;;;;5165300;27;20033;-47
2022/04/23 07:24:17;;;;;;;8.68;6.25;;;22.80;49.60;;;;;;5163613;27;20022;-47
2022/04/23 07:26:43;;;;;;;9.15;6.38;;;22.70;49.60;;;;;;5164641;27;20057;-46
2022/04/23 07:29:10;;;;;;;6.75;5.82;;;22.70;50.00;;;;;;5164963;27;20022;-47
2022/04/23 07:31:37;;;;;;;7.82;5.70;;;22.70;50.50;;;;;;5165047;27;20030;-46
2022/04/23 07:39:34;;;;;;;6.72;5.38;;;22.70;50.80;;;;;;5127815;27;20437;-46
2022/04/23 07:42:00;;;;;;;6.63;5.90;;;22.70;50.60;;;;;;5144070;27;20026;-48
2022/04/23 07:44:26;;;;;;;7.25;5.47;;;22.70;50.70;;;;;;5143862;27;20100;-46
2022/04/23 07:46:52;;;;;;;7.32;6.10;;;22.70;50.70;;;;;;5151660;27;20075;-47
2022/04/23 07:49:18;;;;;;;5.95;4.95;;;22.70;50.60;;;;;;5163894;27;20068;-46
2022/04/23 07:51:47;;;;;;;7.05;5.60;;;22.70;50.50;;;;;;5164682;27;20061;-47
2022/04/23 07:54:14;;;;;;;5.70;4.35;;;22.70;50.70;;;;;;5160285;27;20072;-46
2022/04/23 07:56:41;;;;;;;6.22;4.90;;;22.70;51.10;;;;;;5158633;27;20026;-48
2022/04/23 07:59:08;;;;;;;6.97;4.50;;;22.70;51.30;;;;;;5163978;27;20034;-46
2022/04/23 08:01:34;;;;;;;6.85;4.50;;;22.70;51.40;;;;;;5164686;27;20025;-48
2022/04/23 08:04:03;;;;;;;5.25;4.53;;;22.70;51.40;;;;;;5164066;27;20037;-47
2022/04/23 08:06:30;;;;;;;6.43;4.78;;;22.70;51.30;;;;;;5164408;27;20023;-47
2022/04/23 08:08:56;;;;;;;5.38;4.60;;;22.60;51.10;;;;;;5163935;27;20120;-46
2022/04/23 08:11:25;;;;;;;6.00;4.80;;;22.60;51.10;;;;;;5164341;27;20641;-47
2022/04/23 08:13:51;;;;;;;6.30;4.63;;;22.60;51.10;;;;;;5164265;27;20031;-46
2022/04/23 08:16:17;;;;;;;5.20;4.47;;;22.60;51.40;;;;;;5163969;27;20114;-46
2022/04/23 08:18:44;;;;;;;5.57;4.13;;;22.60;51.70;;;;;;5163979;27;20113;-46
2022/04/23 08:21:10;;;;;;;6.30;4.47;;;22.60;51.70;;;;;;5164033;27;20034;-45
2022/04/23 08:23:36;;;;;;;5.70;4.55;;;22.60;51.70;;;;;;5163958;27;20227;-46
2022/04/23 08:26:05;;;;;;;4.50;3.85;;;22.60;51.70;;;;;;5162836;27;20026;-47
2022/04/23 08:31:16;;;;;;;4.55;4.00;;;22.60;51.50;;;;;;5164121;27;20030;-47
2022/04/23 08:36:36;;;;;;;4.63;3.50;;;22.60;51.40;;;;;;5163651;27;20029;-45
2022/04/23 08:39:06;;;;;;;4.15;3.60;;;22.60;51.70;;;;;;5163800;27;20038;-47
2022/04/23 08:41:34;;;;;;;4.53;3.42;;;22.60;52.00;;;;;;5163808;27;20026;-47
2022/04/23 08:44:04;;;;;;;4.22;3.72;;;22.60;52.00;;;;;;5163971;27;20087;-46
2022/04/23 08:46:31;;;;;;;4.45;3.92;;;22.60;52.00;;;;;;5163847;27;20027;-47
2022/04/23 08:49:04;;;;;;;;;;;22.60;51.90;;;;;;5163681;27;20026;-46
2022/04/23 08:51:31;;;;;;;4.22;3.55;;;22.60;51.80;;;;;;5167928;27;19928;-47
2022/04/23 08:53:57;;;;;;;5.00;3.67;;;22.60;51.70;;;;;;5146817;27;20019;-46
2022/04/23 08:56:23;;;;;;;5.57;3.75;;;22.60;51.60;;;;;;5167701;27;20027;-47
2022/04/23 08:58:49;;;;;;;3.63;3.20;;;22.60;51.90;;;;;;5167551;27;20110;-46
2022/04/23 09:01:16;;;;;;;4.45;3.63;;;22.60;52.10;;;;;;5167502;27;20026;-47
2022/04/23 09:03:42;;;;;;;4.20;3.30;;;22.60;52.10;;;;;;5167898;27;20034;-46
2022/04/23 09:06:08;;;;;;;3.90;3.30;;;22.60;52.10;;;;;;5167479;27;20091;-47
2022/04/23 09:08:34;;;;;;;3.67;3.28;;;22.60;52.10;;;;;;5167513;27;20027;-46
2022/04/23 09:11:00;;;;;;;4.70;3.53;;;22.60;52.00;;;;;;5149103;27;20018;-46
2022/04/23 09:13:30;;;;;;;3.67;3.28;;;22.60;51.90;;;;;;5167727;27;20034;-47
2022/04/23 09:24:48;;;;;;;4.57;2.90;;;22.60;52.00;;;;;;5147121;27;20038;-45
2022/04/23 09:27:15;;;;;;;3.38;2.92;;;22.60;52.20;;;;;;5166678;27;20030;-46
2022/04/23 09:29:51;;;;;;;3.53;2.87;;;22.60;52.20;;;;;;5167258;27;20034;-47
2022/04/23 09:32:20;;;;;;;3.75;3.22;;;22.60;52.10;;;;;;5131339;27;20258;-46
2022/04/23 09:34:46;;;;;;;4.45;3.30;;;22.60;52.10;;;;;;5166872;27;20053;-51
2022/04/23 09:37:12;;;;;;;3.40;3.10;;;22.60;52.00;;;;;;5148358;27;20440;-49
2022/04/23 09:39:39;;;;;;;3.92;3.08;;;22.60;51.90;;;;;;5147998;27;20014;-47
2022/04/23 09:42:20;;;;;;;4.38;2.97;;;22.60;51.80;;;;;;5167164;27;20029;-47
2022/04/23 09:44:46;;;;;;;3.15;2.67;;;22.60;52.10;;;;;;5167133;27;20251;-46
2022/04/23 09:47:32;;;;;;;4.78;3.05;;;22.60;52.40;;;;;;5167000;27;20756;-47
2022/04/23 09:49:58;;;;;;;4.15;3.08;;;22.60;52.30;;;;;;5166677;27;20113;-46
2022/04/23 09:52:30;;;;;;;3.40;3.10;;;22.60;52.30;;;;;;5166772;27;20047;-46
2022/04/23 09:54:57;;;;;;;3.67;2.75;;;22.60;52.20;;;;;;5138521;27;20447;-46
2022/04/23 09:57:24;;;;;;;4.03;3.17;;;22.60;52.10;;;;;;5166619;27;20033;-45
2022/04/23 09:59:54;;;;;;;4.00;3.03;;;22.60;52.60;;;;;;5166360;27;20270;-47
2022/04/23 10:02:20;;;;;;;4.38;3.03;;;22.60;51.90;;;;;;5166050;27;20035;-47
2022/04/23 10:04:46;;;;;;;2.83;2.60;;;22.60;52.00;;;;;;5166714;27;20114;-47
2022/04/23 10:07:13;;;;;;;3.20;2.78;;;22.60;52.30;;;;;;5166706;27;20038;-45
2022/04/23 10:09:39;;;;;;;3.20;2.78;;;22.60;52.40;;;;;;5147788;27;20057;-46
2022/04/23 10:12:06;;;;;;;4.63;2.95;;;22.60;52.30;;;;;;5166631;27;20402;-46
2022/04/23 10:14:37;;;;;;;3.17;2.65;;;22.50;52.40;;;;;;5166471;27;20529;-47
2022/04/23 10:17:05;;;;;;;3.13;2.70;;;22.60;52.30;;;;;;5166333;27;20128;-46
2022/04/23 10:19:31;;;;;;;3.70;2.65;;;22.50;52.20;;;;;;5166000;27;20027;-46
2022/04/23 10:22:11;;;;;;;3.38;2.63;;;22.50;52.00;;;;;;5166169;27;20029;-46
2022/04/23 10:24:49;;;;;;;3.97;2.67;;;22.60;52.10;;;;;;5158308;27;20061;-46
2022/04/23 10:27:15;;;;;;;;;;;22.60;52.40;;;;;;5130714;27;20022;-46
2022/04/23 10:29:41;;;;;;;2.88;2.58;;;22.60;52.40;;;;;;5166207;27;19907;-47
2022/04/23 10:32:13;;;;;;;3.25;2.72;;;22.60;52.40;;;;;;5143059;27;20062;-46
2022/04/23 10:34:40;;;;;;;3.22;2.50;;;22.60;52.40;;;;;;5145109;27;20068;-45
2022/04/23 10:37:25;;;;;;;3.65;2.90;;;22.50;52.30;;;;;;5145315;27;20035;-46
2022/04/23 10:39:51;;;;;;;3.63;2.80;;;22.50;52.30;;;;;;5145059;27;20407;-46
2022/04/23 10:42:18;;;;;;;3.90;2.78;;;22.50;52.10;;;;;;5145391;27;20015;-46
2022/04/23 10:44:45;;;;;;;2.83;2.35;;;22.50;52.20;;;;;;5145126;27;20027;-44
2022/04/23 10:47:32;;;;;;;3.10;2.35;;;22.60;52.50;;;;;;5145212;27;20546;-45
2022/04/23 10:50:15;;;;;;;2.47;2.10;;;22.60;52.50;;;;;;5144809;27;20092;-45
2022/04/23 10:52:41;;;;;;;2.92;2.45;;;22.60;53.00;;;;;;5145311;27;20023;-45
2022/04/23 10:55:11;;;;;;;2.40;2.20;;;22.60;52.50;;;;;;5148847;27;20022;-46
2022/04/23 10:57:40;;;;;;;2.50;2.15;;;22.50;52.40;;;;;;5165175;27;20076;-46
2022/04/23 11:00:16;;;;;;;3.45;2.22;;;22.50;52.40;;;;;;5165776;27;20105;-45
2022/04/23 11:02:46;;;;;;;2.65;2.33;;;22.50;52.20;;;;;;5165777;27;20029;-45
2022/04/23 11:13:52;;;;;;;3.13;2.53;;;22.50;52.50;;;;;;5165489;27;20060;-46
2022/04/23 11:16:22;;;;;;;3.80;2.30;;;22.50;52.50;;;;;;5165041;27;20047;-44
2022/04/23 11:18:52;;;;;;;2.60;2.33;;;22.50;52.40;;;;;;5165100;27;20043;-45
2022/04/23 11:21:32;;;;;;;3.00;2.08;;;22.50;52.30;;;;;;5165072;27;20026;-46
2022/04/23 11:24:02;;;;;;;2.97;2.05;;;22.50;52.20;;;;;;5164216;27;20026;-45
2022/04/23 11:26:42;;;;;;;2.67;2.08;;;22.50;52.40;;;;;;5146543;27;20038;-45
2022/04/23 11:29:08;;;;;;;2.30;2.10;;;22.50;52.50;;;;;;5164870;27;20019;-46
2022/04/23 11:31:34;;;;;;;2.40;2.20;;;22.60;52.60;;;;;;5164826;27;20075;-46
2022/04/23 11:34:02;;;;;;;2.53;2.15;;;22.60;52.50;;;;;;5164876;27;20019;-46
2022/04/23 11:36:29;;;;;;;4.38;2.35;;;22.50;52.50;;;;;;5164886;27;20070;-45
2022/04/23 11:38:56;;;;;;;3.60;2.15;;;22.50;52.40;;;;;;5165040;27;20060;-47
2022/04/23 11:41:29;;;;;;;2.15;1.95;;;22.50;52.30;;;;;;5164398;27;20034;-49
2022/04/23 11:43:55;;;;;;;3.83;2.45;;;22.50;52.40;;;;;;5164969;27;20046;-49
2022/04/23 11:46:21;;;;;;;2.00;1.80;;;22.60;52.60;;;;;;5145951;27;20036;-52
2022/04/23 11:48:48;;;;;;;1.98;1.77;;;22.60;52.70;;;;;;5164527;27;20030;-51
2022/04/23 11:51:18;;;;;;;;;;;22.60;52.60;;;;;;5165031;27;20022;-49
2022/04/23 11:53:58;;;;;;;2.58;2.13;;;22.50;52.50;;;;;;5164422;27;19967;-46
2022/04/23 11:56:34;;;;;;;2.83;2.17;;;22.50;52.60;;;;;;5156694;27;20105;-45
2022/04/23 11:59:04;;;;;;;2.50;1.90;;;22.50;52.50;;;;;;5164069;27;20111;-46
2022/04/23 12:01:31;;;;;;;2.33;1.88;;;22.50;52.30;;;;;;5164442;27;20029;-47
2022/04/23 12:03:58;;;;;;;3.28;1.80;;;22.50;52.40;;;;;;5153551;27;20044;-48
2022/04/23 12:06:25;;;;;;;2.20;2.00;;;22.50;52.60;;;;;;5163172;27;20018;-46
2022/04/23 12:08:51;;;;;;;2.17;1.98;;;22.50;52.60;;;;;;5143596;27;20054;-45
2022/04/23 12:11:26;;;;;;;2.10;1.90;;;22.60;52.60;;;;;;5124879;27;20025;-46
2022/04/23 12:13:53;;;;;;;3.10;1.98;;;22.50;52.50;;;;;;5143680;27;20027;-47
2022/04/23 12:16:35;;;;;;;3.13;1.90;;;22.50;52.60;;;;;;5146162;27;20722;-47
2022/04/23 12:19:05;;;;;;;2.67;2.22;;;22.50;52.50;;;;;;5164313;27;20111;-47
2022/04/23 12:21:32;;;;;;;2.50;2.08;;;22.50;52.40;;;;;;5162775;27;20443;-46
2022/04/23 12:23:58;;;;;;;2.10;1.90;;;22.50;52.50;;;;;;5124794;27;20042;-45
2022/04/23 12:26:24;;;;;;;2.22;1.80;;;22.50;52.80;;;;;;5153826;27;20022;-46
2022/04/23 12:43:20;;;;;;;2.70;1.92;;;22.50;52.50;;;;;;5163888;27;20041;-47
2022/04/23 12:45:47;;;;;;;2.63;1.75;;;22.60;52.80;;;;;;5163773;27;20108;-49
2022/04/23 12:48:14;;;;;;;1.88;1.77;;;22.60;52.90;;;;;;5144823;27;20027;-46
2022/04/23 12:50:41;;;;;;;2.60;2.08;;;22.60;52.80;;;;;;5162727;27;20034;-47
2022/04/23 12:53:07;;;;;;;2.80;1.67;;;22.60;52.70;;;;;;5163751;27;20027;-46
2022/04/23 12:55:36;;;;;;;3.38;1.90;;;22.60;52.70;;;;;;5163361;27;20054;-49
2022/04/23 12:58:02;;;;;;;1.77;1.60;;;22.60;52.70;;;;;;5163989;27;20092;-47
2022/04/23 13:00:29;;;;;;;2.17;1.98;;;22.60;52.70;;;;;;5163609;27;20023;-49
2022/04/23 13:02:59;;;;;;;2.25;1.95;;;22.60;52.70;;;;;;5163306;27;20031;-46
2022/04/23 13:05:26;;;;;;;3.00;2.00;;;22.60;52.80;;;;;;5163643;27;20042;-47
2022/04/23 13:10:37;;;;;;;2.35;1.90;;;22.70;53.00;;;;;;5163606;27;20280;-48
2022/04/23 13:13:03;;;;;;;2.17;1.80;;;22.70;52.90;;;;;;5163661;27;20520;-46
2022/04/23 13:15:30;;;;;;;2.25;1.70;;;22.70;52.80;;;;;;5163634;27;20026;-48
2022/04/23 13:17:56;;;;;;;2.78;2.05;;;22.60;52.80;;;;;;5163650;27;20031;-47
2022/04/23 13:20:22;;;;;;;2.92;1.92;;;22.60;52.70;;;;;;5163565;27;20019;-49
2022/04/23 13:22:48;;;;;;;3.13;2.17;;;22.60;52.70;;;;;;5163542;27;20034;-46
2022/04/23 13:25:18;;;;;;;2.20;2.00;;;22.70;52.70;;;;;;5150900;27;20031;-47
2022/04/23 13:27:44;;;;;;;2.08;1.88;;;22.60;52.80;;;;;;5143066;28;20502;-48
2022/04/23 13:30:11;;;;;;;2.40;2.08;;;22.70;53.00;;;;;;5142821;28;20561;-49
2022/04/23 13:32:39;;;;;;;2.25;2.00;;;22.70;53.20;;;;;;5142632;27;20043;-47
2022/04/23 13:35:10;;;;;;;2.45;1.70;;;22.70;53.10;;;;;;5142581;28;20051;-46
2022/04/23 13:37:36;;;;;;;3.65;1.98;;;22.70;53.00;;;;;;5145233;27;20039;-48